Time;durP1;ratioP1;P1;durP2;ratioP2;P2;SDS_P1;SDS_P2;PMS_P1;PMS_P2;Temp;Humidity;BMP_temperature;BMP_pressure;BME280_temperature;BME280_humidity;BME280_pressure;Samples;Min_cycle;Max_cycle;Signal;HPM_P1;HPM_P2
2021/05/13 00:01:47;;;;;;;;;;;22.10;51.10;;;;;;4733513;30;19957;-86
2021/05/13 00:04:14;;;;;;;;;;;22.10;51.10;;;;;;4727896;30;19930;-87
2021/05/13 00:06:41;;;;;;;;;;;22.10;51.10;;;;;;4732781;30;20683;-86
2021/05/13 00:09:09;;;;;;;;;;;22.00;51.10;;;;;;4727092;30;19941;-87
2021/05/13 00:11:37;;;;;;;;;;;22.10;51.10;;;;;;4714418;30;19930;-85
2021/05/13 00:14:05;;;;;;;;;;;22.10;51.10;;;;;;4730470;30;19937;-84
2021/05/13 00:16:34;;;;;;;;;;;22.10;51.00;;;;;;4707597;30;20500;-85
2021/05/13 00:19:06;;;;;;;;;;;22.00;51.00;;;;;;4722526;30;20304;-85
2021/05/13 00:21:33;;;;;;;;;;;22.00;51.00;;;;;;4708236;30;19930;-84
2021/05/13 00:24:00;;;;;;;;;;;22.00;51.00;;;;;;4729562;30;19937;-84
2021/05/13 00:26:45;;;;;;;;;;;22.00;51.00;;;;;;4725891;30;19938;-84
2021/05/13 00:29:13;;;;;;;;;;;22.00;51.00;;;;;;4715022;30;20590;-84
2021/05/13 00:31:41;;;;;;;;;;;22.00;50.90;;;;;;4723426;30;19945;-84
2021/05/13 00:34:08;;;;;;;;;;;22.00;50.90;;;;;;4699893;30;19938;-84
2021/05/13 00:36:36;;;;;;;;;;;22.00;51.00;;;;;;4725911;30;19930;-84
2021/05/13 00:39:08;;;;;;;;;;;21.90;50.90;;;;;;4729972;30;19961;-85
2021/05/13 00:41:35;;;;;;;;;;;22.00;50.90;;;;;;4726169;30;20004;-85
2021/05/13 00:44:03;;;;;;;;;;;21.90;50.90;;;;;;4710611;30;19939;-84
2021/05/13 00:46:30;;;;;;;;;;;21.90;50.90;;;;;;4724894;30;19939;-86
2021/05/13 00:49:14;;;;;;;;;;;21.90;50.90;;;;;;4727624;30;19986;-85
2021/05/13 00:51:41;;;;;;;;;;;21.90;50.80;;;;;;4716501;30;20129;-86
2021/05/13 00:54:09;;;;;;;;;;;21.90;50.90;;;;;;4724535;30;19934;-85
2021/05/13 00:56:36;;;;;;;;;;;21.90;50.90;;;;;;4729423;30;19946;-85
2021/05/13 00:59:06;;;;;;;;;;;21.90;50.90;;;;;;4722010;30;20392;-86
2021/05/13 01:04:14;;;;;;;;;;;21.90;50.80;;;;;;4721174;30;21613;-87
2021/05/13 01:06:40;;;;;;;;;;;21.90;50.80;;;;;;4701842;30;20658;-84
2021/05/13 01:09:08;;;;;;;;;;;21.80;50.80;;;;;;4725857;30;19930;-84
2021/05/13 01:11:38;;;;;;;;;;;21.80;50.80;;;;;;4727456;30;19993;-86
2021/05/13 01:16:51;;;;;;;;;;;21.80;50.80;;;;;;4711445;30;19939;-86
2021/05/13 01:19:19;;;;;;;;;;;21.80;50.80;;;;;;4727223;30;21361;-84
2021/05/13 01:21:46;;;;;;;;;;;21.80;50.80;;;;;;4707625;30;19938;-85
2021/05/13 01:24:13;;;;;;;;;;;21.80;50.80;;;;;;4727751;30;20261;-85
2021/05/13 01:26:43;;;;;;;;;;;21.80;50.80;;;;;;4725151;30;19934;-85
2021/05/13 01:29:10;;;;;;;;;;;21.80;50.70;;;;;;4729456;30;19942;-87
2021/05/13 01:31:37;;;;;;;;;;;21.80;50.80;;;;;;4724258;30;19931;-87
2021/05/13 01:34:04;;;;;;;;;;;21.80;50.80;;;;;;4714609;30;19941;-87
2021/05/13 01:36:32;;;;;;;;;;;21.80;51.40;;;;;;4728165;30;19972;-87
2021/05/13 01:38:58;;;;;;;;;;;21.80;50.80;;;;;;4720697;30;19942;-87
2021/05/13 01:41:25;;;;;;;;;;;21.80;50.80;;;;;;4713419;30;19930;-85
2021/05/13 01:44:07;;;;;;;;;;;21.70;50.80;;;;;;4726826;30;19930;-87
2021/05/13 01:46:34;;;;;;;;;;;21.70;50.70;;;;;;4726807;30;19931;-86
2021/05/13 01:49:01;;;;;;;;;;;21.70;50.70;;;;;;4722277;30;20423;-86
2021/05/13 01:51:28;;;;;;;;;;;21.80;50.70;;;;;;4714449;30;19945;-86
2021/05/13 01:53:55;;;;;;;;;;;21.70;50.70;;;;;;4724827;30;19939;-86
2021/05/13 01:56:21;;;;;;;;;;;21.70;50.70;;;;;;4728922;30;19931;-86
2021/05/13 01:58:48;;;;;;;;;;;21.70;50.70;;;;;;4722390;30;19931;-87
2021/05/13 02:01:15;;;;;;;;;;;21.70;51.30;;;;;;4724165;30;19919;-86
2021/05/13 02:03:44;;;;;;;;;;;21.70;50.60;;;;;;4730573;30;20030;-84
2021/05/13 02:06:11;;;;;;;;;;;21.70;50.60;;;;;;4730899;30;19953;-84
2021/05/13 02:08:38;;;;;;;;;;;21.70;50.60;;;;;;4729514;30;20209;-84
2021/05/13 02:11:05;;;;;;;;;;;21.70;50.60;;;;;;4728465;30;19939;-84
2021/05/13 02:13:32;;;;;;;;;;;21.70;50.60;;;;;;4731416;30;19935;-85
2021/05/13 02:15:58;;;;;;;;;;;21.70;50.60;;;;;;4729050;30;20292;-84
2021/05/13 02:18:25;;;;;;;;;;;21.70;50.60;;;;;;4729041;30;19977;-85
2021/05/13 02:20:52;;;;;;;;;;;21.70;50.60;;;;;;4726554;30;19930;-84
2021/05/13 02:23:19;;;;;;;;;;;21.70;50.60;;;;;;4733126;30;20313;-85
2021/05/13 02:25:47;;;;;;;;;;;21.60;50.60;;;;;;4725990;30;19930;-84
2021/05/13 02:28:14;;;;;;;;;;;21.60;50.60;;;;;;4731141;30;20635;-84
2021/05/13 02:30:41;;;;;;;;;;;21.60;50.60;;;;;;4871308;24;19946;-89
2021/05/13 02:33:08;;;;;;;;;;;21.60;50.60;;;;;;4716241;30;19988;-88
2021/05/13 02:35:35;;;;;;;;;;;21.60;51.20;;;;;;4714133;30;20364;-89
2021/05/13 02:38:03;;;;;;;;;;;21.60;50.60;;;;;;4696190;30;19938;-89
2021/05/13 02:40:30;;;;;;;;;;;21.60;50.50;;;;;;4701725;30;19941;-87
2021/05/13 02:42:57;;;;;;;;;;;21.60;50.60;;;;;;4711624;30;19937;-87
2021/05/13 02:45:24;;;;;;;;;;;21.60;50.70;;;;;;4714474;30;19930;-90
2021/05/13 02:47:52;;;;;;;;;;;21.60;50.60;;;;;;4710070;30;20323;-89
2021/05/13 02:50:19;;;;;;;;;;;21.60;50.60;;;;;;4711192;30;19934;-89
2021/05/13 02:52:46;;;;;;;;;;;21.60;50.60;;;;;;4709934;30;19931;-91
2021/05/13 02:55:13;;;;;;;;;;;21.60;50.60;;;;;;4706442;30;21153;-90
2021/05/13 02:57:40;;;;;;;;;;;21.60;50.60;;;;;;4700132;30;19934;-90
2021/05/13 03:02:43;;;;;;;;;;;21.60;50.60;;;;;;4722043;30;20281;-89
2021/05/13 03:05:10;;;;;;;;;;;21.50;51.10;;;;;;4719029;30;19922;-87
2021/05/13 03:07:45;;;;;;;;;;;21.50;50.50;;;;;;4714395;30;19946;-88
2021/05/13 03:10:17;;;;;;;;;;;21.50;50.50;;;;;;4716143;30;20354;-87
2021/05/13 03:12:46;;;;;;;;;;;21.50;50.50;;;;;;4714067;30;20247;-87
2021/05/13 03:15:12;;;;;;;;;;;21.50;50.50;;;;;;4737348;30;21630;-89
2021/05/13 03:17:39;;;;;;;;;;;21.50;50.50;;;;;;4735020;30;20007;-88
2021/05/13 03:20:06;;;;;;;;;;;21.50;50.50;;;;;;4739835;30;19937;-89
2021/05/13 03:22:33;;;;;;;;;;;21.50;50.50;;;;;;4745375;30;19919;-91
2021/05/13 03:25:04;;;;;;;;;;;21.50;50.50;;;;;;4743669;30;19940;-90
2021/05/13 03:27:50;;;;;;;;;;;21.50;50.50;;;;;;4746359;30;19918;-90
2021/05/13 03:30:20;;;;;;;;;;;21.50;50.50;;;;;;4730381;30;20692;-87
2021/05/13 03:32:47;;;;;;;;;;;21.50;50.50;;;;;;4741625;30;19937;-85
2021/05/13 03:35:14;;;;;;;;;;;21.50;50.50;;;;;;4732898;30;19989;-86
2021/05/13 03:37:41;;;;;;;;;;;21.40;50.50;;;;;;4700495;30;19931;-86
2021/05/13 03:40:09;;;;;;;;;;;21.50;50.50;;;;;;4718135;30;20398;-86
2021/05/13 03:42:36;;;;;;;;;;;21.40;50.50;;;;;;4730180;30;19942;-86
2021/05/13 03:45:03;;;;;;;;;;;21.40;50.40;;;;;;4711657;30;19930;-86
2021/05/13 03:47:30;;;;;;;;;;;21.40;50.50;;;;;;4732881;30;20411;-85
2021/05/13 03:49:56;;;;;;;;;;;21.40;50.40;;;;;;4732162;30;19941;-89
2021/05/13 03:52:23;;;;;;;;;;;21.40;50.40;;;;;;4713319;30;20392;-88
2021/05/13 03:54:50;;;;;;;;;;;21.40;50.40;;;;;;4733600;30;19937;-88
2021/05/13 03:57:19;;;;;;;;;;;21.40;50.40;;;;;;4767445;24;19941;-91
2021/05/13 03:59:46;;;;;;;;;;;21.40;50.40;;;;;;4743290;30;20439;-93
2021/05/13 04:02:32;;;;;;;;;;;21.40;50.40;;;;;;4734582;30;20251;-92
2021/05/13 04:05:03;;;;;;;;;;;21.40;50.40;;;;;;4726329;30;19930;-88
2021/05/13 04:07:31;;;;;;;;;;;21.40;50.40;;;;;;4741983;30;19941;-85
2021/05/13 04:09:58;;;;;;;;;;;21.40;50.40;;;;;;4742614;30;20190;-87
2021/05/13 04:12:25;;;;;;;;;;;21.40;50.40;;;;;;4726536;30;19931;-85
2021/05/13 04:14:54;;;;;;;;;;;21.40;50.60;;;;;;4743858;30;19937;-86
2021/05/13 04:17:20;;;;;;;;;;;21.40;50.60;;;;;;4746789;30;19934;-86
2021/05/13 04:19:47;;;;;;;;;;;21.50;50.70;;;;;;4742281;30;19934;-86
2021/05/13 04:22:14;;;;;;;;;;;21.50;50.70;;;;;;4746329;30;19937;-89
2021/05/13 04:24:41;;;;;;;;;;;21.50;50.70;;;;;;4745298;30;19930;-87
2021/05/13 04:27:08;;;;;;;;;;;21.50;50.60;;;;;;4748805;30;20003;-88
2021/05/13 04:32:47;;;;;;;;;;;21.60;50.40;;;;;;4736431;30;21940;-91
2021/05/13 04:35:39;;;;;;;;;;;21.70;50.40;;;;;;4734067;30;21396;-88
2021/05/13 04:38:11;;;;;;;;;;;21.70;50.30;;;;;;4729324;30;19947;-88
2021/05/13 04:40:37;;;;;;;;;;;21.70;50.10;;;;;;4730208;30;19930;-83
2021/05/13 04:43:04;;;;;;;;;;;21.80;50.10;;;;;;4726034;30;19937;-82
2021/05/13 04:45:34;;;;;;;;;;;21.80;50.00;;;;;;4714066;30;20196;-83
2021/05/13 04:48:06;;;;;;;;;;;21.80;49.80;;;;;;4725575;30;19935;-83
2021/05/13 04:50:36;;;;;;;;;;;21.80;49.80;;;;;;4729413;30;19934;-84
2021/05/13 04:53:07;;;;;;;;;;;21.90;49.70;;;;;;4725987;30;19945;-83
2021/05/13 04:55:40;;;;;;;;;;;21.90;49.60;;;;;;4721717;30;19945;-81
2021/05/13 04:58:12;;;;;;;;;;;21.90;49.50;;;;;;4706536;30;21367;-82
2021/05/13 05:00:40;;;;;;;;;;;22.00;49.50;;;;;;4709148;30;19930;-82
2021/05/13 05:03:07;;;;;;;;;;;22.00;49.40;;;;;;4706773;30;20475;-84
2021/05/13 05:05:38;;;;;;;;;;;22.00;49.50;;;;;;4710960;30;19934;-82
2021/05/13 05:10:46;;;;;;;;;;;22.00;49.30;;;;;;4821823;24;20383;-81
2021/05/13 05:13:12;;;;;;;;;;;22.00;49.30;;;;;;4741352;30;20303;-84
2021/05/13 05:15:39;;;;;;;;;;;22.10;49.20;;;;;;4735797;30;19940;-89
2021/05/13 05:18:06;;;;;;;;;;;22.10;49.20;;;;;;4744605;30;19930;-86
2021/05/13 05:23:40;;;;;;;;;;;22.20;49.20;;;;;;4734218;30;20698;-91
2021/05/13 05:26:07;;;;;;;;;;;22.10;49.10;;;;;;4739413;30;19952;-90
2021/05/13 05:28:34;;;;;;;;;;;22.10;49.10;;;;;;4743294;30;19938;-84
2021/05/13 05:31:00;;;;;;;;;;;22.10;49.10;;;;;;4726387;30;20399;-81
2021/05/13 05:33:30;;;;;;;;;;;22.20;49.10;;;;;;4716404;30;19974;-84
2021/05/13 05:35:57;;;;;;;;;;;22.20;49.00;;;;;;4722278;30;19930;-84
2021/05/13 05:38:23;;;;;;;;;;;22.20;48.90;;;;;;4721611;30;19938;-85
2021/05/13 05:41:00;;;;;;;;;;;22.20;48.90;;;;;;4721672;30;19934;-88
2021/05/13 05:43:27;;;;;;;;;;;22.30;49.00;;;;;;4723921;30;19955;-84
2021/05/13 05:45:55;;;;;;;;;;;22.30;49.00;;;;;;4724638;30;19937;-86
2021/05/13 05:48:22;;;;;;;;;;;22.30;48.90;;;;;;4731052;30;19958;-92
2021/05/13 05:50:49;;;;;;;;;;;22.30;48.80;;;;;;4722051;30;20155;-84
2021/05/13 05:53:15;;;;;;;;;;;22.30;48.80;;;;;;4714868;30;19931;-84
2021/05/13 05:55:42;;;;;;;;;;;22.30;48.80;;;;;;4722061;30;20265;-84
2021/05/13 05:58:09;;;;;;;;;;;22.30;49.50;;;;;;4730375;30;19934;-83
2021/05/13 06:00:36;;;;;;;;;;;22.30;48.90;;;;;;4722091;30;19930;-90
2021/05/13 06:03:03;;;;;;;;;;;22.30;48.80;;;;;;4716583;30;19939;-87
2021/05/13 06:05:31;;;;;;;;;;;22.40;49.00;;;;;;4734916;30;19930;-91
2021/05/13 06:07:58;;;;;;;;;;;22.40;48.90;;;;;;4724939;30;19989;-89
2021/05/13 06:10:25;;;;;;;;;;;22.40;49.50;;;;;;4727959;30;19931;-92
2021/05/13 06:15:40;;;;;;;;;;;22.30;48.90;;;;;;4858144;24;19942;-83
2021/05/13 06:18:27;;;;;;;;;;;22.30;48.90;;;;;;4720457;30;20389;-82
2021/05/13 06:21:49;;;;;;;;;;;22.20;48.90;;;;;;4651658;30;20186;-83
2021/05/13 06:29:25;;;;;;;;;;;22.20;49.00;;;;;;4595605;30;19931;-83
2021/05/13 06:31:52;;;;;;;;;;;22.10;49.00;;;;;;4719246;30;19941;-83
2021/05/13 06:34:19;;;;;;;;;;;22.20;49.10;;;;;;4740421;30;19930;-83
2021/05/13 06:36:45;;;;;;;;;;;22.20;49.20;;;;;;4739946;30;19930;-83
2021/05/13 06:39:12;;;;;;;;;;;22.10;49.20;;;;;;4721689;30;20070;-83
2021/05/13 06:41:42;;;;;;;;;;;22.10;49.20;;;;;;4743238;30;19938;-82
2021/05/13 06:44:12;;;;;;;;;;;22.10;49.20;;;;;;4741974;30;19930;-82
2021/05/13 06:46:38;;;;;;;;;;;22.10;49.20;;;;;;4733190;30;19945;-82
2021/05/13 06:49:09;;;;;;;;;;;22.10;49.30;;;;;;4741800;30;19984;-84
2021/05/13 06:51:35;;;;;;;;;;;22.00;49.30;;;;;;4736612;30;20181;-84
2021/05/13 06:54:02;;;;;;;;;;;22.00;49.30;;;;;;4746015;30;19934;-83
2021/05/13 06:56:29;;;;;;;;;;;22.00;49.40;;;;;;4735255;30;20175;-84
2021/05/13 06:58:56;;;;;;;;;;;22.00;49.50;;;;;;4745636;30;20211;-83
2021/05/13 07:01:22;;;;;;;;;;;22.00;49.50;;;;;;4741049;30;19934;-84
2021/05/13 07:03:49;;;;;;;;;;;22.00;49.60;;;;;;4745263;30;20033;-83
2021/05/13 07:06:16;;;;;;;;;;;22.00;50.30;;;;;;4730283;30;19950;-89
2021/05/13 07:08:43;;;;;;;;;;;22.00;49.80;;;;;;4739043;30;19945;-88
2021/05/13 07:11:09;;;;;;;;;;;22.00;49.50;;;;;;4727349;30;19942;-83
2021/05/13 07:13:36;;;;;;;;;;;22.10;49.30;;;;;;4745264;30;19934;-82
2021/05/13 07:16:03;;;;;;;;;;;22.10;49.30;;;;;;4744417;30;19937;-81
2021/05/13 07:18:30;;;;;;;;;;;22.10;49.30;;;;;;4743358;30;19934;-83
2021/05/13 07:20:57;;;;;;;;;;;22.10;49.30;;;;;;4746798;30;19941;-86
2021/05/13 07:23:23;;;;;;;;;;;22.10;49.30;;;;;;4741245;30;20021;-84
2021/05/13 07:25:50;;;;;;;;;;;22.10;49.10;;;;;;4733850;30;19948;-85
2021/05/13 07:28:17;;;;;;;;;;;22.20;49.10;;;;;;4726185;30;20422;-86
2021/05/13 07:30:44;;;;;;;;;;;22.20;49.10;;;;;;4740960;30;19934;-87
2021/05/13 07:33:11;;;;;;;;;;;22.20;49.00;;;;;;4742773;30;19934;-84
2021/05/13 07:35:42;;;;;;;;;;;22.20;48.90;;;;;;4748686;30;19938;-86
2021/05/13 07:38:09;;;;;;;;;;;22.30;48.90;;;;;;4737839;30;19937;-85
2021/05/13 07:40:36;;;;;;;;;;;22.30;48.80;;;;;;4737487;30;19934;-86
2021/05/13 07:43:03;;;;;;;;;;;22.30;49.00;;;;;;4742853;30;19970;-89
2021/05/13 07:45:32;;;;;;;;;;;22.30;48.80;;;;;;4723204;30;19985;-93
2021/05/13 07:47:59;;;;;;;;;;;22.30;48.90;;;;;;4731595;30;19945;-89
2021/05/13 07:50:26;;;;;;;;;;;22.30;48.80;;;;;;4731113;30;20334;-83
2021/05/13 07:52:53;;;;;;;;;;;22.40;48.90;;;;;;4738628;30;19935;-83
2021/05/13 07:55:23;;;;;;;;;;;22.40;48.90;;;;;;4734492;30;19938;-85
2021/05/13 07:57:49;;;;;;;;;;;22.40;48.80;;;;;;4742581;30;19930;-84
2021/05/13 08:00:17;;;;;;;;;;;22.40;49.00;;;;;;4744532;30;19930;-81
2021/05/13 08:02:44;;;;;;;;;;;22.50;49.00;;;;;;4738320;30;22186;-82
2021/05/13 08:05:11;;;;;;;;;;;22.40;48.80;;;;;;4738920;30;19942;-81
2021/05/13 08:07:38;;;;;;;;;;;22.50;48.80;;;;;;4739256;30;19962;-81
2021/05/13 08:10:07;;;;;;;;;;;22.50;48.80;;;;;;4735753;30;19934;-85
2021/05/13 08:12:34;;;;;;;;;;;22.50;48.50;;;;;;4743637;30;19989;-82
2021/05/13 08:15:02;;;;;;;;;;;22.50;48.70;;;;;;4745846;30;19930;-89
2021/05/13 08:17:32;;;;;;;;;;;22.50;48.80;;;;;;4718657;30;19934;-86
2021/05/13 08:19:58;;;;;;;;;;;22.60;48.70;;;;;;4731306;30;19930;-84
2021/05/13 08:22:25;;;;;;;;;;;22.60;48.50;;;;;;4726643;30;19930;-84
2021/05/13 08:24:52;;;;;;;;;;;22.60;49.50;;;;;;4738111;30;19931;-88
2021/05/13 08:27:18;;;;;;;;;;;22.70;50.60;;;;;;4744087;30;19931;-90
2021/05/13 08:29:46;;;;;;;;;;;22.70;50.80;;;;;;4728489;30;19936;-86
2021/05/13 08:32:13;;;;;;;;;;;22.70;51.00;;;;;;4739648;30;20315;-88
2021/05/13 08:34:40;;;;;;;;;;;22.70;50.30;;;;;;4737070;30;19941;-80
2021/05/13 08:37:06;;;;;;;;;;;22.70;50.10;;;;;;4744825;30;19930;-84
2021/05/13 08:39:33;;;;;;;;;;;22.70;49.90;;;;;;4729670;30;19949;-86
2021/05/13 08:42:02;;;;;;;;;;;22.80;49.70;;;;;;4740994;30;19937;-81
2021/05/13 08:44:30;;;;;;;;;;;22.70;49.40;;;;;;4738428;30;19941;-85
2021/05/13 08:46:57;;;;;;;;;;;22.80;49.30;;;;;;4740132;30;20315;-81
2021/05/13 08:49:26;;;;;;;;;;;22.80;49.50;;;;;;4725096;30;20383;-81
2021/05/13 08:51:53;;;;;;;;;;;22.80;49.30;;;;;;4736418;30;19941;-83
2021/05/13 08:54:23;;;;;;;;;;;22.80;49.30;;;;;;4737477;30;19938;-86
2021/05/13 08:56:50;;;;;;;;;;;22.90;49.20;;;;;;4742229;30;20427;-91
2021/05/13 08:59:17;;;;;;;;;;;22.90;51.40;;;;;;4727765;30;19934;-85
2021/05/13 09:02:00;;;;;;;;;;;22.90;53.20;;;;;;4730427;30;22185;-87
2021/05/13 09:04:37;;;;;;;;;;;22.80;51.60;;;;;;4701361;30;20382;-89
2021/05/13 09:07:14;;;;;;;;;;;22.90;51.40;;;;;;4741276;30;19937;-88
2021/05/13 09:09:57;;;;;;;;;;;22.90;51.00;;;;;;4723728;30;19934;-88
2021/05/13 09:12:25;;;;;;;;;;;23.00;50.60;;;;;;4712527;30;19930;-86
2021/05/13 09:14:56;;;;;;;;;;;23.00;50.60;;;;;;4730020;30;19937;-87
2021/05/13 09:17:23;;;;;;;;;;;23.00;50.20;;;;;;4759818;30;19945;-89
2021/05/13 09:19:50;;;;;;;;;;;23.10;50.00;;;;;;4759569;30;20436;-88
2021/05/13 09:22:23;;;;;;;;;;;23.10;49.90;;;;;;4743566;30;19938;-87
2021/05/13 09:25:07;;;;;;;;;;;23.10;49.50;;;;;;4731971;30;20253;-83
2021/05/13 09:27:41;;;;;;;;;;;23.20;48.80;;;;;;4759059;30;20301;-85
2021/05/13 09:30:26;;;;;;;;;;;23.10;49.00;;;;;;4756170;30;19976;-86
2021/05/13 09:32:53;;;;;;;;;;;23.10;49.00;;;;;;4737926;30;21620;-84
2021/05/13 09:35:24;;;;;;;;;;;23.20;49.20;;;;;;4754577;30;19938;-87
2021/05/13 09:37:52;;;;;;;;;;;23.20;48.90;;;;;;4736703;30;19957;-83
2021/05/13 09:40:21;;;;;;;;;;;23.20;49.40;;;;;;4754671;30;19934;-83
2021/05/13 09:43:07;;;;;;;;;;;23.20;48.70;;;;;;4746950;30;20440;-82
2021/05/13 09:45:40;;;;;;;;;;;23.20;47.70;;;;;;4743639;30;19949;-88
2021/05/13 09:48:07;;;;;;;;;;;23.10;47.40;;;;;;4753846;30;20332;-80
2021/05/13 09:50:34;;;;;;;;;;;23.10;47.30;;;;;;4757095;30;19934;-80
2021/05/13 09:53:03;;;;;;;;;;;23.10;46.80;;;;;;4751088;30;19934;-82
2021/05/13 09:55:30;;;;;;;;;;;23.10;46.70;;;;;;4759252;30;19945;-79
2021/05/13 09:57:59;;;;;;;;;;;23.10;47.10;;;;;;4758464;30;19937;-80
2021/05/13 10:00:44;;;;;;;;;;;23.00;46.30;;;;;;4751448;24;19929;-80
2021/05/13 10:03:44;;;;;;;;;;;23.00;46.40;;;;;;4741298;30;19942;-80
2021/05/13 10:06:31;;;;;;;;;;;23.00;47.10;;;;;;4684538;30;19944;-81
2021/05/13 10:09:04;;;;;;;;;;;23.00;47.90;;;;;;4724334;30;19941;-79
2021/05/13 10:11:42;;;;;;;;;;;23.00;47.20;;;;;;4724908;30;20430;-81
2021/05/13 10:14:15;;;;;;;;;;;22.90;46.60;;;;;;4727294;30;20012;-80
2021/05/13 10:16:50;;;;;;;;;;;22.80;46.20;;;;;;4752569;30;19996;-83
2021/05/13 10:19:37;;;;;;;;;;;22.80;46.70;;;;;;4754114;30;20311;-81
2021/05/13 10:22:07;;;;;;;;;;;22.70;46.40;;;;;;4757424;29;19937;-81
2021/05/13 10:24:36;;;;;;;;;;;22.60;47.10;;;;;;4759393;30;19930;-80
2021/05/13 10:27:16;;;;;;;;;;;22.60;46.80;;;;;;4746678;30;20051;-79
2021/05/13 10:29:44;;;;;;;;;;;22.60;47.10;;;;;;4752713;30;19983;-87
2021/05/13 10:32:17;;;;;;;;;;;22.50;46.80;;;;;;4749279;30;19929;-83
2021/05/13 10:34:49;;;;;;;;;;;22.50;46.00;;;;;;4749471;30;19934;-89
2021/05/13 10:37:19;;;;;;;;;;;22.50;47.40;;;;;;4751768;30;20139;-83
2021/05/13 10:41:16;;;;;;;;;;;22.50;47.40;;;;;;4755055;30;20234;-83
2021/05/13 10:43:13;;;;;;;;;;;22.40;46.40;;;;;;4710266;30;19930;-83
2021/05/13 10:45:45;;;;;;;;;;;22.40;46.10;;;;;;4761189;30;19938;-83
2021/05/13 10:48:18;;;;;;;;;;;22.40;45.50;;;;;;4751521;30;19930;-83
2021/05/13 10:50:50;;;;;;;;;;;22.30;45.10;;;;;;4768720;30;20977;-84
2021/05/13 10:53:36;;;;;;;;;;;22.30;45.10;;;;;;4751284;30;19956;-80
2021/05/13 10:56:25;;;;;;;;;;;22.30;45.10;;;;;;4742027;30;20141;-82
2021/05/13 10:58:59;;;;;;;;;;;22.30;44.70;;;;;;4766276;30;19941;-82
2021/05/13 11:01:28;;;;;;;;;;;22.20;44.60;;;;;;4734011;30;19945;-83
2021/05/13 11:04:31;;;;;;;;;;;22.20;44.70;;;;;;4750157;30;20128;-84
2021/05/13 11:07:01;;;;;;;;;;;22.20;43.70;;;;;;4667519;30;19936;-81
2021/05/13 11:12:20;;;;;;;;;;;22.20;44.40;;;;;;4749394;30;19941;-82
2021/05/13 11:14:53;;;;;;;;;;;22.10;44.10;;;;;;4734209;30;20413;-82
2021/05/13 11:17:39;;;;;;;;;;;22.10;44.00;;;;;;4743994;30;20033;-83
2021/05/13 11:20:24;;;;;;;;;;;22.10;44.20;;;;;;4743412;30;20339;-81
2021/05/13 11:22:52;;;;;;;;;;;22.10;44.70;;;;;;4747458;30;20706;-83
2021/05/13 11:25:19;;;;;;;;;;;22.10;45.10;;;;;;4744000;30;20296;-83
2021/05/13 11:27:46;;;;;;;;;;;22.10;44.30;;;;;;4749111;30;19984;-82
2021/05/13 11:30:13;;;;;;;;;;;22.10;44.60;;;;;;4747446;30;19930;-82
2021/05/13 11:32:40;;;;;;;;;;;22.10;44.20;;;;;;4749560;30;19944;-83
2021/05/13 11:35:08;;;;;;;;;;;22.10;43.40;;;;;;4745633;30;19965;-82
2021/05/13 11:37:38;;;;;;;;;;;22.10;43.10;;;;;;4747294;30;19931;-83
2021/05/13 11:40:15;;;;;;;;;;;22.10;43.00;;;;;;4742825;30;19934;-79
2021/05/13 11:42:42;;;;;;;;;;;22.10;43.80;;;;;;4744300;30;19931;-87
2021/05/13 11:45:15;;;;;;;;;;;22.20;44.70;;;;;;4742503;30;19940;-90
2021/05/13 11:47:42;;;;;;;;;;;22.20;45.40;;;;;;4730083;30;19941;-86
2021/05/13 11:50:09;;;;;;;;;;;22.20;45.50;;;;;;4742811;30;19938;-88
2021/05/13 11:52:56;;;;;;;;;;;22.30;45.40;;;;;;4743003;30;19934;-87
2021/05/13 11:55:29;;;;;;;;;;;22.40;44.20;;;;;;4700122;30;19945;-85
2021/05/13 11:57:56;;;;;;;;;;;22.50;43.60;;;;;;4744034;30;19934;-86
2021/05/13 12:00:23;;;;;;;;;;;22.60;42.80;;;;;;4753790;30;19933;-88
2021/05/13 12:02:49;;;;;;;;;;;22.60;43.20;;;;;;4731409;30;19940;-91
2021/05/13 12:05:16;;;;;;;;;;;22.70;43.80;;;;;;4738402;30;19945;-90
2021/05/13 12:07:43;;;;;;;;;;;22.70;44.40;;;;;;4747820;30;20314;-87
2021/05/13 12:10:10;;;;;;;;;;;22.80;45.40;;;;;;4758258;30;19929;-88
2021/05/13 12:12:36;;;;;;;;;;;22.90;45.80;;;;;;4744101;30;20356;-85
2021/05/13 12:15:13;;;;;;;;;;;22.90;45.60;;;;;;4758888;30;19937;-84
2021/05/13 12:17:39;;;;;;;;;;;23.00;45.40;;;;;;4757573;30;20387;-87
2021/05/13 12:20:09;;;;;;;;;;;23.00;44.90;;;;;;4738429;30;19930;-88
2021/05/13 12:22:38;;;;;;;;;;;23.10;45.10;;;;;;4755077;30;19938;-85
2021/05/13 12:25:05;;;;;;;;;;;23.10;45.50;;;;;;4761800;30;19938;-84
2021/05/13 12:27:35;;;;;;;;;;;23.20;45.20;;;;;;4756354;30;19946;-86
2021/05/13 12:30:02;;;;;;;;;;;23.30;45.20;;;;;;4740388;30;19934;-86
2021/05/13 12:32:32;;;;;;;;;;;23.30;45.10;;;;;;4746137;30;20431;-83
2021/05/13 12:34:59;;;;;;;;;;;23.40;44.60;;;;;;4761355;30;19933;-85
2021/05/13 12:37:25;;;;;;;;;;;23.40;44.30;;;;;;4758555;30;19970;-85
2021/05/13 12:39:53;;;;;;;;;;;23.40;44.20;;;;;;4760681;30;20423;-87
2021/05/13 12:42:27;;;;;;;;;;;23.40;43.70;;;;;;4752384;30;20333;-91
2021/05/13 12:45:17;;;;;;;;;;;23.50;43.30;;;;;;4710456;30;19947;-92
2021/05/13 12:47:56;;;;;;;;;;;23.50;43.10;;;;;;4743791;30;20585;-87
2021/05/13 12:50:26;;;;;;;;;;;23.50;43.10;;;;;;4739614;30;19941;-89
2021/05/13 12:53:11;;;;;;;;;;;23.60;43.20;;;;;;4738529;30;19966;-92
2021/05/13 12:55:46;;;;;;;;;;;23.60;43.30;;;;;;4724126;30;20141;-83
2021/05/13 12:58:34;;;;;;;;;;;23.60;43.10;;;;;;4759131;30;19937;-90
2021/05/13 13:01:03;;;;;;;;;;;23.60;43.30;;;;;;4726974;30;20023;-85
2021/05/13 13:03:32;;;;;;;;;;;23.70;43.20;;;;;;4758135;30;19942;-86
2021/05/13 13:06:05;;;;;;;;;;;23.70;42.70;;;;;;4760495;30;19929;-84
2021/05/13 13:08:51;;;;;;;;;;;23.70;42.60;;;;;;4758794;30;20288;-88
2021/05/13 13:11:30;;;;;;;;;;;23.70;43.10;;;;;;4754553;30;20233;-90
2021/05/13 13:14:00;;;;;;;;;;;23.80;43.40;;;;;;4761062;30;19934;-90
2021/05/13 13:16:27;;;;;;;;;;;23.80;43.00;;;;;;4746255;30;20280;-90
2021/05/13 13:19:06;;;;;;;;;;;23.80;43.20;;;;;;4758319;30;19933;-86
2021/05/13 13:21:34;;;;;;;;;;;23.90;42.30;;;;;;4758225;30;19966;-88
2021/05/13 13:24:21;;;;;;;;;;;23.90;42.30;;;;;;4757883;30;19934;-92
2021/05/13 13:29:53;;;;;;;;;;;23.90;42.20;;;;;;4703272;30;20256;-90
2021/05/13 13:32:22;;;;;;;;;;;23.90;42.70;;;;;;4724008;30;19930;-90
2021/05/13 13:35:05;;;;;;;;;;;24.00;41.60;;;;;;4751671;30;19929;-92
2021/05/13 13:37:32;;;;;;;;;;;23.90;42.50;;;;;;4745961;30;20419;-92
2021/05/13 13:39:59;;;;;;;;;;;23.90;41.60;;;;;;4744145;30;19993;-92
2021/05/13 13:42:34;;;;;;;;;;;24.00;41.20;;;;;;4740430;30;19930;-90
2021/05/13 13:45:03;;;;;;;;;;;23.90;40.50;;;;;;4751215;30;20015;-89
2021/05/13 13:47:30;;;;;;;;;;;23.90;41.20;;;;;;4745791;30;19934;-90
2021/05/13 13:49:57;;;;;;;;;;;23.90;42.00;;;;;;4728706;30;19965;-93
2021/05/13 13:52:26;;;;;;;;;;;23.90;41.50;;;;;;4719318;30;20021;-86
2021/05/13 13:54:53;;;;;;;;;;;23.90;40.70;;;;;;4742244;30;19931;-85
2021/05/13 13:57:20;;;;;;;;;;;23.90;41.50;;;;;;4758743;30;19947;-87
2021/05/13 13:59:46;;;;;;;;;;;23.90;41.10;;;;;;4740950;30;20387;-89
2021/05/13 14:02:13;;;;;;;;;;;23.90;42.40;;;;;;4742409;30;19930;-87
2021/05/13 14:04:40;;;;;;;;;;;23.90;42.70;;;;;;4746445;30;20224;-82
2021/05/13 14:07:06;;;;;;;;;;;23.90;41.90;;;;;;4755464;30;19930;-81
2021/05/13 14:09:33;;;;;;;;;;;23.80;40.30;;;;;;4759771;30;19934;-82
2021/05/13 14:12:01;;;;;;;;;;;23.70;39.30;;;;;;4761661;30;19930;-81
2021/05/13 14:14:27;;;;;;;;;;;23.60;39.30;;;;;;4757853;30;20401;-82
2021/05/13 14:16:54;;;;;;;;;;;23.50;40.30;;;;;;4760752;30;20326;-82
2021/05/13 14:19:25;;;;;;;;;;;23.60;40.40;;;;;;4755913;30;19934;-79
2021/05/13 14:21:52;;;;;;;;;;;23.40;40.40;;;;;;4752930;30;19934;-87
2021/05/13 14:24:23;;;;;;;;;;;23.40;41.80;;;;;;4740880;30;19988;-84
2021/05/13 14:26:49;;;;;;;;;;;23.40;41.10;;;;;;4753057;30;19930;-84
2021/05/13 14:29:17;;;;;;;;;;;23.40;41.50;;;;;;4754514;30;19937;-84
2021/05/13 14:31:44;;;;;;;;;;;23.40;41.00;;;;;;4751359;30;19930;-85
2021/05/13 14:34:10;;;;;;;;;;;23.40;41.70;;;;;;4752951;30;19984;-86
2021/05/13 14:36:37;;;;;;;;;;;23.40;41.20;;;;;;4758743;30;19941;-85
2021/05/13 14:39:04;;;;;;;;;;;23.40;40.70;;;;;;4756986;30;19941;-82
2021/05/13 14:41:30;;;;;;;;;;;23.40;40.70;;;;;;4756311;30;20544;-83
2021/05/13 14:43:57;;;;;;;;;;;23.40;41.10;;;;;;4753072;30;21263;-84
2021/05/13 14:46:25;;;;;;;;;;;23.40;41.40;;;;;;4757399;30;20366;-87
2021/05/13 14:49:08;;;;;;;;;;;23.40;40.80;;;;;;4753472;30;19942;-84
2021/05/13 14:51:35;;;;;;;;;;;23.40;40.80;;;;;;4757471;30;19930;-84
2021/05/13 14:54:02;;;;;;;;;;;23.30;41.00;;;;;;4751350;30;20390;-84
2021/05/13 14:56:29;;;;;;;;;;;23.30;41.10;;;;;;4759783;30;20287;-84
2021/05/13 14:58:55;;;;;;;;;;;23.30;41.10;;;;;;4731045;30;20017;-85
2021/05/13 15:01:27;;;;;;;;;;;23.30;40.80;;;;;;4736990;30;20422;-82
2021/05/13 15:03:53;;;;;;;;;;;23.30;41.40;;;;;;4725336;30;20447;-84